Banksville, New York
Current Conditions -  °F | °C
As of 10:56 PM on Friday 19 Dec 2014 (Local Time) from KHPN Reporting Station
Scattered Clouds Scattered Clouds  
Wind Chill: 19°   Ceiling: Unl
Heat Index: 28°   Visibility: 10mi
Dew Point: 19°   Wind: 10mph
Humidity: 69%   Direction: 340°NNW
Pressure: 30.14"   Gusts: NA
Location:  41.191°N, 73.6333°W
Report Text: KHPN 200356Z 34009KT 10SM SCT100 M02/M07 A3014 RMK AO2 SLP216 T10221072
Loading
Personal Weather Stations






























Interactive Weather Map New forecast layout! Learn more

10-Day Weather Forecast

Advertisements
Track Severe Weather on mobile